Terminal Aerodrome Forecast
Issued by NWS

Home | Current Version | Previous Version | Text Only | Print | Product List | Glossary On
Versions: 1 2 3 4 5 6 7 8 9 10 11 12 13 14 15 16
360
FTUS43 KBIS 110522
TAFJMS
TAF
KJMS 110522Z 1106/1206 VRB03KT P6SM OVC020
     FM111100 15004KT P6SM OVC010
     FM112000 06004KT P6SM -SN OVC010
     FM120000 03005KT P6SM OVC015
     FM120100 03006KT P6SM OVC035
     FM120500 36008KT P6SM BKN060=

USA.gov is the U.S. government's official web portal to all federal, state and local government web resources and services.